sensor_id;sensor_type;location;lat;lon;timestamp;P1;durP1;ratioP1;P2;durP2;ratioP2
18526;SDS011;9393;42.158;24.748;2022-08-21T00:02:13;12.75;;;5.63;;
18526;SDS011;9393;42.158;24.748;2022-08-21T00:05:17;11.65;;;5.03;;
18526;SDS011;9393;42.158;24.748;2022-08-21T00:08:21;13.30;;;5.47;;
18526;SDS011;9393;42.158;24.748;2022-08-21T00:11:24;15.18;;;6.00;;
18526;SDS011;9393;42.158;24.748;2022-08-21T00:14:29;9.05;;;4.82;;
18526;SDS011;9393;42.158;24.748;2022-08-21T00:17:34;13.07;;;5.07;;
18526;SDS011;9393;42.158;24.748;2022-08-21T00:20:37;8.95;;;4.95;;
18526;SDS011;9393;42.158;24.748;2022-08-21T00:23:42;13.90;;;5.07;;
18526;SDS011;9393;42.158;24.748;2022-08-21T00:26:46;14.52;;;5.18;;
18526;SDS011;9393;42.158;24.748;2022-08-21T00:29:51;14.25;;;5.50;;
18526;SDS011;9393;42.158;24.748;2022-08-21T00:32:55;10.68;;;5.25;;
18526;SDS011;9393;42.158;24.748;2022-08-21T00:35:59;10.77;;;4.88;;
18526;SDS011;9393;42.158;24.748;2022-08-21T00:39:03;9.73;;;4.47;;
18526;SDS011;9393;42.158;24.748;2022-08-21T00:42:07;13.82;;;4.53;;
18526;SDS011;9393;42.158;24.748;2022-08-21T00:45:11;10.77;;;4.97;;
18526;SDS011;9393;42.158;24.748;2022-08-21T00:48:15;10.88;;;4.80;;
18526;SDS011;9393;42.158;24.748;2022-08-21T00:51:20;9.13;;;4.65;;
18526;SDS011;9393;42.158;24.748;2022-08-21T00:54:28;10.02;;;4.90;;
18526;SDS011;9393;42.158;24.748;2022-08-21T00:57:36;11.18;;;5.20;;
18526;SDS011;9393;42.158;24.748;2022-08-21T01:00:44;13.02;;;5.28;;
18526;SDS011;9393;42.158;24.748;2022-08-21T01:03:49;11.88;;;4.55;;
18526;SDS011;9393;42.158;24.748;2022-08-21T01:06:53;11.07;;;4.40;;
18526;SDS011;9393;42.158;24.748;2022-08-21T01:09:56;14.35;;;5.10;;
18526;SDS011;9393;42.158;24.748;2022-08-21T01:13:00;8.85;;;4.40;;
18526;SDS011;9393;42.158;24.748;2022-08-21T01:16:08;10.32;;;4.65;;
18526;SDS011;9393;42.158;24.748;2022-08-21T01:19:12;9.20;;;4.57;;
18526;SDS011;9393;42.158;24.748;2022-08-21T01:22:18;9.20;;;4.57;;
18526;SDS011;9393;42.158;24.748;2022-08-21T01:25:21;8.93;;;4.35;;
18526;SDS011;9393;42.158;24.748;2022-08-21T01:28:25;11.07;;;4.53;;
18526;SDS011;9393;42.158;24.748;2022-08-21T01:31:31;16.27;;;5.65;;
18526;SDS011;9393;42.158;24.748;2022-08-21T01:34:36;9.13;;;4.15;;
18526;SDS011;9393;42.158;24.748;2022-08-21T01:37:43;9.15;;;4.15;;
18526;SDS011;9393;42.158;24.748;2022-08-21T01:40:47;9.70;;;3.80;;
18526;SDS011;9393;42.158;24.748;2022-08-21T01:43:50;9.07;;;3.55;;
18526;SDS011;9393;42.158;24.748;2022-08-21T01:46:54;11.32;;;4.45;;
18526;SDS011;9393;42.158;24.748;2022-08-21T01:50:00;7.10;;;3.60;;
18526;SDS011;9393;42.158;24.748;2022-08-21T01:53:05;12.75;;;4.32;;
18526;SDS011;9393;42.158;24.748;2022-08-21T01:56:09;7.55;;;4.45;;
18526;SDS011;9393;42.158;24.748;2022-08-21T01:59:14;12.95;;;4.95;;
18526;SDS011;9393;42.158;24.748;2022-08-21T02:02:18;13.05;;;4.88;;
18526;SDS011;9393;42.158;24.748;2022-08-21T02:05:21;10.93;;;5.10;;
18526;SDS011;9393;42.158;24.748;2022-08-21T02:08:26;10.77;;;5.50;;
18526;SDS011;9393;42.158;24.748;2022-08-21T02:11:30;10.55;;;6.07;;
18526;SDS011;9393;42.158;24.748;2022-08-21T02:14:34;9.13;;;5.70;;
18526;SDS011;9393;42.158;24.748;2022-08-21T02:17:38;10.40;;;6.13;;
18526;SDS011;9393;42.158;24.748;2022-08-21T02:20:44;15.35;;;5.93;;
18526;SDS011;9393;42.158;24.748;2022-08-21T02:23:57;8.73;;;5.55;;
18526;SDS011;9393;42.158;24.748;2022-08-21T02:27:01;11.02;;;6.43;;
18526;SDS011;9393;42.158;24.748;2022-08-21T02:30:04;12.63;;;6.85;;
18526;SDS011;9393;42.158;24.748;2022-08-21T02:33:09;10.25;;;6.88;;
18526;SDS011;9393;42.158;24.748;2022-08-21T02:36:13;17.98;;;7.55;;
18526;SDS011;9393;42.158;24.748;2022-08-21T02:39:18;15.95;;;7.07;;
18526;SDS011;9393;42.158;24.748;2022-08-21T02:42:27;17.23;;;7.95;;
18526;SDS011;9393;42.158;24.748;2022-08-21T02:45:32;16.15;;;7.43;;
18526;SDS011;9393;42.158;24.748;2022-08-21T02:48:36;15.10;;;6.68;;
18526;SDS011;9393;42.158;24.748;2022-08-21T02:51:40;10.98;;;6.65;;
18526;SDS011;9393;42.158;24.748;2022-08-21T02:54:44;12.55;;;7.18;;
18526;SDS011;9393;42.158;24.748;2022-08-21T02:57:48;14.70;;;7.13;;
18526;SDS011;9393;42.158;24.748;2022-08-21T03:00:52;13.07;;;7.55;;
18526;SDS011;9393;42.158;24.748;2022-08-21T03:03:56;12.38;;;7.90;;
18526;SDS011;9393;42.158;24.748;2022-08-21T03:06:59;13.60;;;7.72;;
18526;SDS011;9393;42.158;24.748;2022-08-21T03:10:04;15.68;;;7.63;;
18526;SDS011;9393;42.158;24.748;2022-08-21T03:13:09;17.90;;;7.97;;
18526;SDS011;9393;42.158;24.748;2022-08-21T03:16:13;17.25;;;8.85;;
18526;SDS011;9393;42.158;24.748;2022-08-21T03:19:16;16.48;;;8.55;;
18526;SDS011;9393;42.158;24.748;2022-08-21T03:22:20;14.25;;;7.93;;
18526;SDS011;9393;42.158;24.748;2022-08-21T03:25:25;16.58;;;8.27;;
18526;SDS011;9393;42.158;24.748;2022-08-21T03:28:41;15.32;;;8.82;;
18526;SDS011;9393;42.158;24.748;2022-08-21T03:31:44;12.65;;;7.70;;
18526;SDS011;9393;42.158;24.748;2022-08-21T03:34:49;11.30;;;8.18;;
18526;SDS011;9393;42.158;24.748;2022-08-21T03:37:53;12.90;;;7.78;;
18526;SDS011;9393;42.158;24.748;2022-08-21T03:40:58;10.93;;;7.50;;
18526;SDS011;9393;42.158;24.748;2022-08-21T03:44:02;16.90;;;7.70;;
18526;SDS011;9393;42.158;24.748;2022-08-21T03:47:06;15.70;;;8.55;;
18526;SDS011;9393;42.158;24.748;2022-08-21T03:50:09;16.90;;;7.35;;
18526;SDS011;9393;42.158;24.748;2022-08-21T03:53:12;10.23;;;7.05;;
18526;SDS011;9393;42.158;24.748;2022-08-21T03:56:19;14.18;;;7.43;;
18526;SDS011;9393;42.158;24.748;2022-08-21T03:59:23;13.05;;;7.53;;
18526;SDS011;9393;42.158;24.748;2022-08-21T04:02:27;11.45;;;7.28;;
18526;SDS011;9393;42.158;24.748;2022-08-21T04:05:30;13.95;;;7.95;;
18526;SDS011;9393;42.158;24.748;2022-08-21T04:08:34;13.52;;;8.45;;
18526;SDS011;9393;42.158;24.748;2022-08-21T04:11:39;12.32;;;7.68;;
18526;SDS011;9393;42.158;24.748;2022-08-21T04:14:42;13.35;;;7.32;;
18526;SDS011;9393;42.158;24.748;2022-08-21T04:17:46;14.45;;;8.63;;
18526;SDS011;9393;42.158;24.748;2022-08-21T04:20:50;14.98;;;8.18;;
18526;SDS011;9393;42.158;24.748;2022-08-21T04:23:56;13.52;;;8.48;;
18526;SDS011;9393;42.158;24.748;2022-08-21T04:27:03;14.18;;;8.43;;
18526;SDS011;9393;42.158;24.748;2022-08-21T04:30:07;10.30;;;8.38;;
18526;SDS011;9393;42.158;24.748;2022-08-21T04:33:11;15.73;;;8.50;;
18526;SDS011;9393;42.158;24.748;2022-08-21T04:36:14;14.40;;;8.63;;
18526;SDS011;9393;42.158;24.748;2022-08-21T04:39:23;13.60;;;8.00;;
18526;SDS011;9393;42.158;24.748;2022-08-21T04:42:31;15.45;;;8.32;;
18526;SDS011;9393;42.158;24.748;2022-08-21T04:45:35;14.45;;;8.23;;
18526;SDS011;9393;42.158;24.748;2022-08-21T04:48:41;12.70;;;8.50;;
18526;SDS011;9393;42.158;24.748;2022-08-21T04:51:44;11.13;;;7.63;;
18526;SDS011;9393;42.158;24.748;2022-08-21T04:54:47;15.30;;;8.48;;
18526;SDS011;9393;42.158;24.748;2022-08-21T04:57:56;18.55;;;8.27;;
18526;SDS011;9393;42.158;24.748;2022-08-21T05:01:00;13.75;;;9.18;;
18526;SDS011;9393;42.158;24.748;2022-08-21T05:04:07;14.15;;;9.45;;
18526;SDS011;9393;42.158;24.748;2022-08-21T05:07:14;14.55;;;8.82;;
18526;SDS011;9393;42.158;24.748;2022-08-21T05:10:42;17.67;;;9.27;;
18526;SDS011;9393;42.158;24.748;2022-08-21T05:13:47;13.20;;;8.95;;
18526;SDS011;9393;42.158;24.748;2022-08-21T05:16:58;13.95;;;8.57;;
18526;SDS011;9393;42.158;24.748;2022-08-21T05:20:01;15.43;;;8.68;;
18526;SDS011;9393;42.158;24.748;2022-08-21T05:23:06;15.75;;;9.48;;
18526;SDS011;9393;42.158;24.748;2022-08-21T05:26:11;15.23;;;8.68;;
18526;SDS011;9393;42.158;24.748;2022-08-21T05:29:20;13.40;;;8.77;;
18526;SDS011;9393;42.158;24.748;2022-08-21T05:32:24;11.75;;;8.43;;
18526;SDS011;9393;42.158;24.748;2022-08-21T05:35:29;12.32;;;8.98;;
18526;SDS011;9393;42.158;24.748;2022-08-21T05:38:33;13.50;;;8.52;;
18526;SDS011;9393;42.158;24.748;2022-08-21T05:41:37;16.65;;;8.98;;
18526;SDS011;9393;42.158;24.748;2022-08-21T05:44:41;12.25;;;7.80;;
18526;SDS011;9393;42.158;24.748;2022-08-21T05:47:45;15.35;;;8.02;;
18526;SDS011;9393;42.158;24.748;2022-08-21T05:50:49;10.70;;;8.35;;
18526;SDS011;9393;42.158;24.748;2022-08-21T05:53:53;16.38;;;9.68;;
18526;SDS011;9393;42.158;24.748;2022-08-21T05:56:57;13.18;;;8.48;;
18526;SDS011;9393;42.158;24.748;2022-08-21T06:00:02;11.00;;;7.75;;
18526;SDS011;9393;42.158;24.748;2022-08-21T06:03:14;14.23;;;8.85;;
18526;SDS011;9393;42.158;24.748;2022-08-21T06:06:19;15.77;;;9.25;;
18526;SDS011;9393;42.158;24.748;2022-08-21T06:09:22;14.48;;;8.68;;
18526;SDS011;9393;42.158;24.748;2022-08-21T06:12:26;13.88;;;8.02;;
18526;SDS011;9393;42.158;24.748;2022-08-21T06:15:30;14.88;;;8.60;;
18526;SDS011;9393;42.158;24.748;2022-08-21T06:18:34;13.32;;;8.05;;
18526;SDS011;9393;42.158;24.748;2022-08-21T06:21:38;19.08;;;9.93;;
18526;SDS011;9393;42.158;24.748;2022-08-21T06:24:41;14.43;;;10.48;;
18526;SDS011;9393;42.158;24.748;2022-08-21T06:27:45;18.27;;;10.18;;
18526;SDS011;9393;42.158;24.748;2022-08-21T06:30:49;15.70;;;9.45;;
18526;SDS011;9393;42.158;24.748;2022-08-21T06:33:54;15.20;;;9.13;;
18526;SDS011;9393;42.158;24.748;2022-08-21T06:36:57;11.30;;;7.55;;
18526;SDS011;9393;42.158;24.748;2022-08-21T06:40:01;13.10;;;7.45;;
18526;SDS011;9393;42.158;24.748;2022-08-21T06:43:05;12.95;;;8.20;;
18526;SDS011;9393;42.158;24.748;2022-08-21T06:46:12;13.95;;;8.00;;
18526;SDS011;9393;42.158;24.748;2022-08-21T06:49:15;10.30;;;7.60;;
18526;SDS011;9393;42.158;24.748;2022-08-21T06:52:22;13.60;;;7.95;;
18526;SDS011;9393;42.158;24.748;2022-08-21T06:55:25;16.33;;;7.80;;
18526;SDS011;9393;42.158;24.748;2022-08-21T06:58:29;14.75;;;7.75;;
18526;SDS011;9393;42.158;24.748;2022-08-21T07:01:34;13.10;;;7.78;;
18526;SDS011;9393;42.158;24.748;2022-08-21T07:04:38;14.88;;;8.02;;
18526;SDS011;9393;42.158;24.748;2022-08-21T07:07:41;13.43;;;8.70;;
18526;SDS011;9393;42.158;24.748;2022-08-21T07:10:44;14.57;;;8.88;;
18526;SDS011;9393;42.158;24.748;2022-08-21T07:13:49;15.93;;;9.27;;
18526;SDS011;9393;42.158;24.748;2022-08-21T07:16:55;17.10;;;9.10;;
18526;SDS011;9393;42.158;24.748;2022-08-21T07:19:58;17.73;;;10.20;;
18526;SDS011;9393;42.158;24.748;2022-08-21T07:23:02;15.85;;;10.07;;
18526;SDS011;9393;42.158;24.748;2022-08-21T07:26:07;14.45;;;10.23;;
18526;SDS011;9393;42.158;24.748;2022-08-21T07:29:13;17.00;;;9.30;;
18526;SDS011;9393;42.158;24.748;2022-08-21T07:32:17;16.08;;;8.77;;
18526;SDS011;9393;42.158;24.748;2022-08-21T07:35:22;19.70;;;9.30;;
18526;SDS011;9393;42.158;24.748;2022-08-21T07:38:25;12.75;;;8.60;;
18526;SDS011;9393;42.158;24.748;2022-08-21T07:41:29;14.82;;;8.80;;
18526;SDS011;9393;42.158;24.748;2022-08-21T07:44:33;14.80;;;9.02;;
18526;SDS011;9393;42.158;24.748;2022-08-21T07:47:44;16.13;;;9.13;;
18526;SDS011;9393;42.158;24.748;2022-08-21T07:50:48;14.73;;;9.18;;
18526;SDS011;9393;42.158;24.748;2022-08-21T07:53:53;14.00;;;9.40;;
18526;SDS011;9393;42.158;24.748;2022-08-21T07:56:57;15.15;;;9.52;;
18526;SDS011;9393;42.158;24.748;2022-08-21T08:00:01;15.00;;;8.95;;
18526;SDS011;9393;42.158;24.748;2022-08-21T08:03:13;17.63;;;9.50;;
18526;SDS011;9393;42.158;24.748;2022-08-21T08:06:29;15.63;;;9.13;;
18526;SDS011;9393;42.158;24.748;2022-08-21T08:09:33;18.48;;;8.40;;
18526;SDS011;9393;42.158;24.748;2022-08-21T08:12:38;12.75;;;8.52;;
18526;SDS011;9393;42.158;24.748;2022-08-21T08:15:43;14.95;;;9.23;;
18526;SDS011;9393;42.158;24.748;2022-08-21T08:18:48;16.05;;;9.32;;
18526;SDS011;9393;42.158;24.748;2022-08-21T08:21:52;15.75;;;9.60;;
18526;SDS011;9393;42.158;24.748;2022-08-21T08:24:56;18.33;;;10.48;;
18526;SDS011;9393;42.158;24.748;2022-08-21T08:28:01;15.00;;;10.25;;
18526;SDS011;9393;42.158;24.748;2022-08-21T08:31:17;14.27;;;8.80;;
18526;SDS011;9393;42.158;24.748;2022-08-21T08:34:21;10.48;;;8.15;;
18526;SDS011;9393;42.158;24.748;2022-08-21T08:37:26;14.30;;;7.97;;
18526;SDS011;9393;42.158;24.748;2022-08-21T08:40:36;19.70;;;8.35;;
18526;SDS011;9393;42.158;24.748;2022-08-21T08:43:48;16.00;;;8.57;;
18526;SDS011;9393;42.158;24.748;2022-08-21T08:46:53;14.23;;;8.00;;
18526;SDS011;9393;42.158;24.748;2022-08-21T08:50:00;18.05;;;8.93;;
18526;SDS011;9393;42.158;24.748;2022-08-21T08:53:08;18.80;;;7.97;;
18526;SDS011;9393;42.158;24.748;2022-08-21T08:56:18;18.10;;;8.90;;
18526;SDS011;9393;42.158;24.748;2022-08-21T08:59:26;18.08;;;9.43;;
18526;SDS011;9393;42.158;24.748;2022-08-21T09:02:35;16.60;;;10.38;;
18526;SDS011;9393;42.158;24.748;2022-08-21T09:05:44;17.13;;;9.98;;
18526;SDS011;9393;42.158;24.748;2022-08-21T09:08:50;18.73;;;10.02;;
18526;SDS011;9393;42.158;24.748;2022-08-21T09:12:06;12.77;;;8.50;;
18526;SDS011;9393;42.158;24.748;2022-08-21T09:15:16;13.43;;;9.13;;
18526;SDS011;9393;42.158;24.748;2022-08-21T09:18:29;16.33;;;9.50;;
18526;SDS011;9393;42.158;24.748;2022-08-21T09:21:46;12.30;;;8.75;;
18526;SDS011;9393;42.158;24.748;2022-08-21T09:24:59;20.95;;;9.13;;
18526;SDS011;9393;42.158;24.748;2022-08-21T09:28:09;15.15;;;9.07;;
18526;SDS011;9393;42.158;24.748;2022-08-21T09:31:18;18.58;;;9.23;;
18526;SDS011;9393;42.158;24.748;2022-08-21T09:34:27;14.25;;;8.50;;
18526;SDS011;9393;42.158;24.748;2022-08-21T09:37:34;13.60;;;9.32;;
18526;SDS011;9393;42.158;24.748;2022-08-21T09:40:54;16.65;;;9.20;;
18526;SDS011;9393;42.158;24.748;2022-08-21T09:44:00;16.50;;;7.90;;
18526;SDS011;9393;42.158;24.748;2022-08-21T09:47:04;18.00;;;13.70;;
18526;SDS011;9393;42.158;24.748;2022-08-21T09:50:09;20.85;;;12.00;;
18526;SDS011;9393;42.158;24.748;2022-08-21T09:53:17;11.02;;;6.93;;
18526;SDS011;9393;42.158;24.748;2022-08-21T09:56:27;17.45;;;9.32;;
18526;SDS011;9393;42.158;24.748;2022-08-21T09:59:49;12.93;;;8.63;;
18526;SDS011;9393;42.158;24.748;2022-08-21T10:02:52;17.17;;;8.75;;
18526;SDS011;9393;42.158;24.748;2022-08-21T10:05:57;14.77;;;9.27;;
18526;SDS011;9393;42.158;24.748;2022-08-21T10:09:07;15.07;;;8.07;;
18526;SDS011;9393;42.158;24.748;2022-08-21T10:12:21;13.68;;;9.27;;
18526;SDS011;9393;42.158;24.748;2022-08-21T10:15:30;16.88;;;9.57;;
18526;SDS011;9393;42.158;24.748;2022-08-21T10:18:43;16.10;;;8.32;;
18526;SDS011;9393;42.158;24.748;2022-08-21T10:21:59;17.60;;;8.93;;
18526;SDS011;9393;42.158;24.748;2022-08-21T10:25:11;16.27;;;8.48;;
18526;SDS011;9393;42.158;24.748;2022-08-21T10:28:22;14.23;;;8.10;;
18526;SDS011;9393;42.158;24.748;2022-08-21T10:31:37;17.27;;;8.88;;
18526;SDS011;9393;42.158;24.748;2022-08-21T10:34:50;12.98;;;8.50;;
18526;SDS011;9393;42.158;24.748;2022-08-21T10:42:19;13.50;;;8.52;;
18526;SDS011;9393;42.158;24.748;2022-08-21T10:45:41;20.08;;;9.38;;
18526;SDS011;9393;42.158;24.748;2022-08-21T10:48:54;13.60;;;8.65;;
18526;SDS011;9393;42.158;24.748;2022-08-21T10:52:10;15.32;;;8.82;;
18526;SDS011;9393;42.158;24.748;2022-08-21T10:55:31;16.95;;;9.38;;
18526;SDS011;9393;42.158;24.748;2022-08-21T10:58:40;16.02;;;9.88;;
18526;SDS011;9393;42.158;24.748;2022-08-21T11:01:50;18.15;;;10.20;;
18526;SDS011;9393;42.158;24.748;2022-08-21T11:05:00;18.88;;;10.35;;
18526;SDS011;9393;42.158;24.748;2022-08-21T11:08:09;20.33;;;11.40;;
18526;SDS011;9393;42.158;24.748;2022-08-21T11:11:24;16.30;;;10.55;;
18526;SDS011;9393;42.158;24.748;2022-08-21T11:14:41;20.70;;;11.20;;
18526;SDS011;9393;42.158;24.748;2022-08-21T11:17:53;19.02;;;13.50;;
18526;SDS011;9393;42.158;24.748;2022-08-21T11:21:03;15.20;;;11.10;;
18526;SDS011;9393;42.158;24.748;2022-08-21T11:24:23;18.02;;;11.07;;
18526;SDS011;9393;42.158;24.748;2022-08-21T11:27:33;15.50;;;10.45;;
18526;SDS011;9393;42.158;24.748;2022-08-21T11:30:47;18.75;;;10.20;;
18526;SDS011;9393;42.158;24.748;2022-08-21T11:34:01;18.45;;;10.77;;
18526;SDS011;9393;42.158;24.748;2022-08-21T11:37:26;19.63;;;9.75;;
18526;SDS011;9393;42.158;24.748;2022-08-21T11:40:52;16.50;;;9.10;;
18526;SDS011;9393;42.158;24.748;2022-08-21T11:44:10;18.00;;;8.93;;
18526;SDS011;9393;42.158;24.748;2022-08-21T11:47:24;13.98;;;9.32;;
18526;SDS011;9393;42.158;24.748;2022-08-21T11:50:38;14.52;;;8.80;;
18526;SDS011;9393;42.158;24.748;2022-08-21T11:53:46;14.05;;;7.95;;
18526;SDS011;9393;42.158;24.748;2022-08-21T11:56:57;15.25;;;8.52;;
18526;SDS011;9393;42.158;24.748;2022-08-21T12:00:06;13.15;;;8.65;;
18526;SDS011;9393;42.158;24.748;2022-08-21T12:03:17;12.80;;;8.50;;
18526;SDS011;9393;42.158;24.748;2022-08-21T12:06:29;17.00;;;8.85;;
18526;SDS011;9393;42.158;24.748;2022-08-21T12:09:34;15.38;;;8.52;;
18526;SDS011;9393;42.158;24.748;2022-08-21T12:12:40;14.40;;;8.80;;
18526;SDS011;9393;42.158;24.748;2022-08-21T12:15:44;13.70;;;8.43;;
18526;SDS011;9393;42.158;24.748;2022-08-21T12:18:49;16.60;;;9.00;;
18526;SDS011;9393;42.158;24.748;2022-08-21T12:22:08;12.20;;;8.88;;
18526;SDS011;9393;42.158;24.748;2022-08-21T12:25:17;17.02;;;10.07;;
18526;SDS011;9393;42.158;24.748;2022-08-21T12:28:22;15.55;;;9.27;;
18526;SDS011;9393;42.158;24.748;2022-08-21T12:31:27;17.08;;;8.98;;
18526;SDS011;9393;42.158;24.748;2022-08-21T12:34:34;19.17;;;8.95;;
18526;SDS011;9393;42.158;24.748;2022-08-21T12:37:41;18.30;;;9.10;;
18526;SDS011;9393;42.158;24.748;2022-08-21T12:40:49;16.73;;;8.48;;
18526;SDS011;9393;42.158;24.748;2022-08-21T12:43:57;13.63;;;8.73;;
18526;SDS011;9393;42.158;24.748;2022-08-21T12:47:04;14.85;;;9.00;;
18526;SDS011;9393;42.158;24.748;2022-08-21T12:50:11;12.80;;;8.68;;
18526;SDS011;9393;42.158;24.748;2022-08-21T12:53:19;13.30;;;8.90;;
18526;SDS011;9393;42.158;24.748;2022-08-21T12:56:30;11.57;;;8.32;;
18526;SDS011;9393;42.158;24.748;2022-08-21T12:59:36;12.43;;;8.27;;
18526;SDS011;9393;42.158;24.748;2022-08-21T13:02:42;12.75;;;8.00;;
18526;SDS011;9393;42.158;24.748;2022-08-21T13:05:51;15.60;;;9.40;;
18526;SDS011;9393;42.158;24.748;2022-08-21T13:08:57;18.20;;;10.32;;
18526;SDS011;9393;42.158;24.748;2022-08-21T13:12:07;12.73;;;9.57;;
18526;SDS011;9393;42.158;24.748;2022-08-21T13:15:11;19.55;;;10.38;;
18526;SDS011;9393;42.158;24.748;2022-08-21T13:18:19;15.63;;;8.80;;
18526;SDS011;9393;42.158;24.748;2022-08-21T13:21:29;13.45;;;8.73;;
18526;SDS011;9393;42.158;24.748;2022-08-21T13:24:35;15.07;;;8.07;;
18526;SDS011;9393;42.158;24.748;2022-08-21T13:27:44;13.65;;;8.45;;
18526;SDS011;9393;42.158;24.748;2022-08-21T13:30:58;11.05;;;7.75;;
18526;SDS011;9393;42.158;24.748;2022-08-21T13:34:03;11.55;;;7.72;;
18526;SDS011;9393;42.158;24.748;2022-08-21T13:37:08;11.68;;;7.97;;
18526;SDS011;9393;42.158;24.748;2022-08-21T13:40:16;14.20;;;8.82;;
18526;SDS011;9393;42.158;24.748;2022-08-21T13:43:25;9.10;;;7.70;;
18526;SDS011;9393;42.158;24.748;2022-08-21T13:46:32;10.63;;;7.47;;
18526;SDS011;9393;42.158;24.748;2022-08-21T13:49:39;13.07;;;7.88;;
18526;SDS011;9393;42.158;24.748;2022-08-21T13:52:54;11.15;;;7.88;;
18526;SDS011;9393;42.158;24.748;2022-08-21T13:56:00;13.95;;;7.78;;
18526;SDS011;9393;42.158;24.748;2022-08-21T13:59:06;14.73;;;7.93;;
18526;SDS011;9393;42.158;24.748;2022-08-21T14:02:10;12.75;;;8.02;;
18526;SDS011;9393;42.158;24.748;2022-08-21T14:05:19;11.32;;;7.25;;
18526;SDS011;9393;42.158;24.748;2022-08-21T14:08:26;14.05;;;7.25;;
18526;SDS011;9393;42.158;24.748;2022-08-21T14:11:34;10.95;;;7.28;;
18526;SDS011;9393;42.158;24.748;2022-08-21T14:14:38;12.80;;;7.50;;
18526;SDS011;9393;42.158;24.748;2022-08-21T14:17:43;11.35;;;6.68;;
18526;SDS011;9393;42.158;24.748;2022-08-21T14:20:47;11.38;;;6.60;;
18526;SDS011;9393;42.158;24.748;2022-08-21T14:23:59;8.57;;;6.32;;
18526;SDS011;9393;42.158;24.748;2022-08-21T14:27:06;9.10;;;6.43;;
18526;SDS011;9393;42.158;24.748;2022-08-21T14:30:11;12.73;;;7.50;;
18526;SDS011;9393;42.158;24.748;2022-08-21T14:33:22;10.55;;;7.13;;
18526;SDS011;9393;42.158;24.748;2022-08-21T14:36:30;10.02;;;6.93;;
18526;SDS011;9393;42.158;24.748;2022-08-21T14:39:35;12.68;;;7.65;;
18526;SDS011;9393;42.158;24.748;2022-08-21T14:42:39;11.18;;;7.28;;
18526;SDS011;9393;42.158;24.748;2022-08-21T14:45:43;12.38;;;7.00;;
18526;SDS011;9393;42.158;24.748;2022-08-21T14:48:46;8.90;;;7.00;;
18526;SDS011;9393;42.158;24.748;2022-08-21T14:51:50;11.95;;;8.10;;
18526;SDS011;9393;42.158;24.748;2022-08-21T14:55:00;11.98;;;8.25;;
18526;SDS011;9393;42.158;24.748;2022-08-21T14:58:03;9.18;;;7.55;;
18526;SDS011;9393;42.158;24.748;2022-08-21T15:01:06;10.75;;;7.80;;
18526;SDS011;9393;42.158;24.748;2022-08-21T15:04:11;10.52;;;8.10;;
18526;SDS011;9393;42.158;24.748;2022-08-21T15:07:14;11.57;;;7.93;;
18526;SDS011;9393;42.158;24.748;2022-08-21T15:10:19;11.18;;;7.53;;
18526;SDS011;9393;42.158;24.748;2022-08-21T15:13:22;11.18;;;7.32;;
18526;SDS011;9393;42.158;24.748;2022-08-21T15:16:26;10.95;;;7.93;;
18526;SDS011;9393;42.158;24.748;2022-08-21T15:19:31;9.60;;;7.47;;
18526;SDS011;9393;42.158;24.748;2022-08-21T15:22:35;9.52;;;7.13;;
18526;SDS011;9393;42.158;24.748;2022-08-21T15:25:41;9.15;;;7.32;;
18526;SDS011;9393;42.158;24.748;2022-08-21T15:28:46;9.38;;;7.13;;
18526;SDS011;9393;42.158;24.748;2022-08-21T15:31:51;10.93;;;7.30;;
18526;SDS011;9393;42.158;24.748;2022-08-21T15:34:58;10.13;;;7.38;;
18526;SDS011;9393;42.158;24.748;2022-08-21T15:38:01;12.23;;;7.18;;
18526;SDS011;9393;42.158;24.748;2022-08-21T15:41:06;13.02;;;6.80;;
18526;SDS011;9393;42.158;24.748;2022-08-21T15:44:11;9.80;;;6.47;;
18526;SDS011;9393;42.158;24.748;2022-08-21T15:47:16;9.13;;;6.53;;
18526;SDS011;9393;42.158;24.748;2022-08-21T15:50:23;10.82;;;7.20;;
18526;SDS011;9393;42.158;24.748;2022-08-21T15:53:27;12.98;;;6.85;;
18526;SDS011;9393;42.158;24.748;2022-08-21T15:56:35;8.57;;;5.70;;
18526;SDS011;9393;42.158;24.748;2022-08-21T15:59:41;9.52;;;6.35;;
18526;SDS011;9393;42.158;24.748;2022-08-21T16:02:47;11.63;;;7.10;;
18526;SDS011;9393;42.158;24.748;2022-08-21T16:05:53;10.00;;;6.63;;
18526;SDS011;9393;42.158;24.748;2022-08-21T16:08:58;8.40;;;5.65;;
18526;SDS011;9393;42.158;24.748;2022-08-21T16:12:04;12.70;;;6.47;;
18526;SDS011;9393;42.158;24.748;2022-08-21T16:15:09;8.32;;;6.15;;
18526;SDS011;9393;42.158;24.748;2022-08-21T16:18:20;9.50;;;6.55;;
18526;SDS011;9393;42.158;24.748;2022-08-21T16:21:27;10.38;;;6.80;;
18526;SDS011;9393;42.158;24.748;2022-08-21T16:24:30;8.95;;;6.93;;
18526;SDS011;9393;42.158;24.748;2022-08-21T16:27:36;10.38;;;6.55;;
18526;SDS011;9393;42.158;24.748;2022-08-21T16:30:40;9.90;;;6.70;;
18526;SDS011;9393;42.158;24.748;2022-08-21T16:33:48;13.93;;;7.88;;
18526;SDS011;9393;42.158;24.748;2022-08-21T16:36:57;10.60;;;6.05;;
18526;SDS011;9393;42.158;24.748;2022-08-21T16:40:01;8.32;;;6.75;;
18526;SDS011;9393;42.158;24.748;2022-08-21T16:43:06;10.70;;;6.65;;
18526;SDS011;9393;42.158;24.748;2022-08-21T16:46:11;8.60;;;6.63;;
18526;SDS011;9393;42.158;24.748;2022-08-21T16:49:16;10.73;;;6.60;;
18526;SDS011;9393;42.158;24.748;2022-08-21T16:52:19;9.38;;;6.35;;
18526;SDS011;9393;42.158;24.748;2022-08-21T16:55:22;8.77;;;6.18;;
18526;SDS011;9393;42.158;24.748;2022-08-21T16:58:29;12.05;;;7.43;;
18526;SDS011;9393;42.158;24.748;2022-08-21T17:01:34;12.45;;;8.18;;
18526;SDS011;9393;42.158;24.748;2022-08-21T17:04:38;13.27;;;8.50;;
18526;SDS011;9393;42.158;24.748;2022-08-21T17:07:42;14.60;;;8.77;;
18526;SDS011;9393;42.158;24.748;2022-08-21T17:10:46;17.20;;;8.88;;
18526;SDS011;9393;42.158;24.748;2022-08-21T17:13:53;11.32;;;8.38;;
18526;SDS011;9393;42.158;24.748;2022-08-21T17:16:58;12.25;;;7.80;;
18526;SDS011;9393;42.158;24.748;2022-08-21T17:20:05;11.57;;;7.70;;
18526;SDS011;9393;42.158;24.748;2022-08-21T17:23:09;13.35;;;8.52;;
18526;SDS011;9393;42.158;24.748;2022-08-21T17:26:13;13.40;;;8.65;;
18526;SDS011;9393;42.158;24.748;2022-08-21T17:29:23;14.70;;;8.15;;
18526;SDS011;9393;42.158;24.748;2022-08-21T17:32:29;13.10;;;8.38;;
18526;SDS011;9393;42.158;24.748;2022-08-21T17:35:33;13.60;;;8.48;;
18526;SDS011;9393;42.158;24.748;2022-08-21T17:38:36;13.57;;;8.70;;
18526;SDS011;9393;42.158;24.748;2022-08-21T17:41:39;13.93;;;8.90;;
18526;SDS011;9393;42.158;24.748;2022-08-21T17:44:44;14.43;;;9.55;;
18526;SDS011;9393;42.158;24.748;2022-08-21T17:47:48;13.07;;;8.82;;
18526;SDS011;9393;42.158;24.748;2022-08-21T17:50:51;12.43;;;9.70;;
18526;SDS011;9393;42.158;24.748;2022-08-21T17:53:55;15.13;;;9.85;;
18526;SDS011;9393;42.158;24.748;2022-08-21T17:56:58;17.77;;;9.90;;
18526;SDS011;9393;42.158;24.748;2022-08-21T18:00:04;15.93;;;9.85;;
18526;SDS011;9393;42.158;24.748;2022-08-21T18:03:13;12.25;;;9.60;;
18526;SDS011;9393;42.158;24.748;2022-08-21T18:06:20;15.35;;;9.85;;
18526;SDS011;9393;42.158;24.748;2022-08-21T18:09:23;13.23;;;9.30;;
18526;SDS011;9393;42.158;24.748;2022-08-21T18:12:28;14.35;;;9.90;;
18526;SDS011;9393;42.158;24.748;2022-08-21T18:15:35;14.95;;;9.27;;
18526;SDS011;9393;42.158;24.748;2022-08-21T18:18:40;14.60;;;8.77;;
18526;SDS011;9393;42.158;24.748;2022-08-21T18:21:45;16.25;;;9.68;;
18526;SDS011;9393;42.158;24.748;2022-08-21T18:24:48;12.57;;;9.90;;
18526;SDS011;9393;42.158;24.748;2022-08-21T18:27:51;14.32;;;10.02;;
18526;SDS011;9393;42.158;24.748;2022-08-21T18:30:56;14.63;;;10.35;;
18526;SDS011;9393;42.158;24.748;2022-08-21T18:34:02;18.65;;;10.13;;